Peytonsburg, Kentucky
Current Conditions -  °F | °C
As of 6:56 AM on Friday 28 Nov 2014 (Local Time) from KEKQ Reporting Station
Clear Clear  
Wind Chill: 27°   Ceiling: Unl
Heat Index: 27°   Visibility: 10mi
Dew Point: 21°   Wind: 0mph
Humidity: 78%   Direction: NA
Pressure: 30.45"   Gusts: NA
Location:  36.7332°N, 85.3312°W
Report Text: KEKQ 281256Z AUTO 00000KT 10SM CLR M03/M06 A3045 RMK AO2 T10271061 SLP325
Loading
Personal Weather Stations






























Interactive Weather Map New forecast layout! Learn more

10-Day Weather Forecast

Advertisements
Track Severe Weather on mobile